createdAt,value
2018-02-22T00:01:07.706Z,71.12
2018-02-22T00:03:35.224Z,71.26
2018-02-22T00:06:02.727Z,71.27
2018-02-22T00:08:30.221Z,71.35
2018-02-22T00:10:57.735Z,71.38
2018-02-22T00:13:25.217Z,71.38
2018-02-22T00:15:52.731Z,71.44
2018-02-22T00:18:20.231Z,71.53
2018-02-22T00:20:47.723Z,71.61
2018-02-22T00:23:15.230Z,71.62
2018-02-22T00:25:42.707Z,71.63
2018-02-22T00:28:10.200Z,71.65
2018-02-22T00:30:37.680Z,71.69
2018-02-22T00:33:05.176Z,71.85
2018-02-22T00:35:32.692Z,71.93
2018-02-22T00:38:00.194Z,72.06
2018-02-22T00:40:27.687Z,72.12
2018-02-22T00:42:55.179Z,72.05
2018-02-22T00:45:22.663Z,72.07
2018-02-22T00:47:50.160Z,72.19
2018-02-22T00:50:17.647Z,72.27
2018-02-22T00:52:45.156Z,72.29
2018-02-22T00:55:12.644Z,72.34
2018-02-22T00:57:40.127Z,72.40
2018-02-22T01:00:07.614Z,72.43
2018-02-22T01:02:35.108Z,72.45
2018-02-22T01:05:02.599Z,72.46
2018-02-22T01:07:30.087Z,72.50
2018-02-22T01:09:57.587Z,72.48
2018-02-22T01:12:25.085Z,72.58
2018-02-22T01:14:52.559Z,72.71
2018-02-22T01:17:20.051Z,72.72
2018-02-22T01:19:47.544Z,72.77
2018-02-22T01:22:15.040Z,72.83
2018-02-22T01:24:42.529Z,72.84
2018-02-22T01:27:10.032Z,72.83
2018-02-22T01:29:37.506Z,72.85
2018-02-22T01:32:05.024Z,72.89
2018-02-22T01:34:32.508Z,72.78
2018-02-22T01:37:00.023Z,72.98
2018-02-22T01:39:27.506Z,73.09
2018-02-22T01:41:54.999Z,73.14
2018-02-22T01:44:22.491Z,73.15
2018-02-22T01:46:49.976Z,73.10
2018-02-22T01:49:17.472Z,73.11
2018-02-22T01:51:44.967Z,73.29
2018-02-22T01:54:12.494Z,73.25
2018-02-22T01:56:39.984Z,73.34
2018-02-22T01:59:07.463Z,73.31
2018-02-22T02:01:34.960Z,73.35
2018-02-22T02:04:02.458Z,73.46
2018-02-22T02:06:29.947Z,73.50
2018-02-22T02:08:57.435Z,73.58
2018-02-22T02:11:24.933Z,73.63
2018-02-22T02:13:52.431Z,73.59
2018-02-22T02:16:19.950Z,73.67
2018-02-22T02:18:47.431Z,73.87
2018-02-22T02:21:14.927Z,73.91
2018-02-22T02:23:42.427Z,73.93
2018-02-22T02:26:09.916Z,73.94
2018-02-22T02:28:37.404Z,73.98
2018-02-22T02:31:04.898Z,74.03
2018-02-22T02:33:32.492Z,74.08
2018-02-22T02:35:59.980Z,74.08
2018-02-22T02:38:27.473Z,74.16
2018-02-22T02:40:54.971Z,74.20
2018-02-22T02:43:22.473Z,74.28
2018-02-22T02:45:49.960Z,74.37
2018-02-22T02:48:17.452Z,74.43
2018-02-22T02:50:44.931Z,74.41
2018-02-22T02:53:12.436Z,74.43
2018-02-22T02:55:39.922Z,74.53
2018-02-22T02:58:07.419Z,74.59
2018-02-22T03:00:34.896Z,74.65
2018-02-22T03:03:02.393Z,74.70
2018-02-22T03:05:29.879Z,74.78
2018-02-22T03:07:57.373Z,74.81
2018-02-22T03:10:24.867Z,74.86
2018-02-22T03:12:52.379Z,74.90
2018-02-22T03:15:19.876Z,74.93
2018-02-22T03:17:47.362Z,74.98
2018-02-22T03:20:14.858Z,75.02
2018-02-22T03:22:42.354Z,75.09
2018-02-22T03:25:09.858Z,75.16
2018-02-22T03:27:37.339Z,75.22
2018-02-22T03:30:04.837Z,75.27
2018-02-22T03:32:32.353Z,75.34
2018-02-22T03:34:59.847Z,75.42
2018-02-22T03:37:27.324Z,75.46
2018-02-22T03:39:54.819Z,75.54
2018-02-22T03:42:22.326Z,75.63
2018-02-22T03:44:49.820Z,75.74
2018-02-22T03:47:17.306Z,75.82
2018-02-22T03:49:44.799Z,75.92
2018-02-22T03:52:12.297Z,76.00
2018-02-22T03:54:39.783Z,76.08
2018-02-22T03:57:07.270Z,76.15
2018-02-22T04:02:04.806Z,76.21
2018-02-22T04:04:32.287Z,76.25
2018-02-22T04:06:59.788Z,76.32
2018-02-22T04:09:27.283Z,76.36
2018-02-22T04:11:54.785Z,76.40
2018-02-22T04:14:22.290Z,76.42
2018-02-22T04:16:49.734Z,76.44
2018-02-22T04:19:17.271Z,76.48
2018-02-22T04:21:44.764Z,76.49
2018-02-22T04:24:12.258Z,76.54
2018-02-22T04:26:39.751Z,76.65
2018-02-22T04:29:07.267Z,76.68
2018-02-22T04:31:34.747Z,76.83
2018-02-22T04:34:02.234Z,76.97
2018-02-22T04:36:29.744Z,77.04
2018-02-22T04:38:57.231Z,77.02
2018-02-22T04:41:24.758Z,77.00
2018-02-22T04:43:52.280Z,76.99
2018-02-22T04:46:19.743Z,76.99
2018-02-22T04:48:47.239Z,76.90
2018-02-22T04:51:14.746Z,77.02
2018-02-22T04:53:42.227Z,77.06
2018-02-22T04:56:09.739Z,77.00
2018-02-22T04:58:37.259Z,76.90
2018-02-22T05:01:04.718Z,76.87
2018-02-22T05:03:32.259Z,76.91
2018-02-22T05:05:59.751Z,77.00
2018-02-22T05:08:27.267Z,77.06
2018-02-22T05:10:54.763Z,77.06
2018-02-22T05:13:22.266Z,77.07
2018-02-22T05:15:49.747Z,77.09
2018-02-22T05:18:17.236Z,77.07
2018-02-22T05:20:44.743Z,77.05
2018-02-22T05:23:12.220Z,77.09
2018-02-22T05:25:39.720Z,77.11
2018-02-22T05:28:07.227Z,77.09
2018-02-22T05:30:34.716Z,77.10
2018-02-22T05:33:02.211Z,77.09
2018-02-22T05:35:29.708Z,77.05
2018-02-22T05:37:57.194Z,77.07
2018-02-22T05:40:24.689Z,77.14
2018-02-22T05:42:52.188Z,77.15
2018-02-22T05:45:19.667Z,77.22
2018-02-22T05:47:47.180Z,77.28
2018-02-22T05:50:14.663Z,77.35
2018-02-22T05:52:42.143Z,77.41
2018-02-22T05:55:09.639Z,77.51
2018-02-22T05:57:37.118Z,77.59
2018-02-22T06:00:04.620Z,77.67
2018-02-22T06:02:32.118Z,77.74
2018-02-22T06:04:59.607Z,77.80
2018-02-22T06:07:27.082Z,77.84
2018-02-22T06:09:54.545Z,77.86
2018-02-22T06:12:22.061Z,77.89
2018-02-22T06:14:49.565Z,77.95
2018-02-22T06:17:17.056Z,77.99
2018-02-22T06:19:44.547Z,78.03
2018-02-22T06:22:12.038Z,78.11
2018-02-22T06:24:39.551Z,78.15
2018-02-22T06:27:07.059Z,78.23
2018-02-22T06:29:34.508Z,78.26
2018-02-22T06:32:02.046Z,78.24
2018-02-22T06:34:29.548Z,78.25
2018-02-22T06:36:57.023Z,78.30
2018-02-22T06:39:24.511Z,78.33
2018-02-22T06:41:52.003Z,78.34
2018-02-22T06:44:19.514Z,78.36
2018-02-22T06:46:47.039Z,78.37
2018-02-22T06:49:14.509Z,78.39
2018-02-22T06:51:42.003Z,78.40
2018-02-22T06:54:09.506Z,78.40
2018-02-22T06:56:36.999Z,78.38
2018-02-22T06:59:04.476Z,78.36
2018-02-22T07:01:31.966Z,78.34
2018-02-22T07:03:59.481Z,78.30
2018-02-22T07:06:26.961Z,78.28
2018-02-22T07:08:54.441Z,78.33
2018-02-22T07:11:21.946Z,78.33
2018-02-22T07:13:49.452Z,78.34
2018-02-22T07:16:16.983Z,78.33
2018-02-22T07:18:44.489Z,78.33
2018-02-22T07:21:12.001Z,78.34
2018-02-22T07:23:39.503Z,78.34
2018-02-22T07:26:07.011Z,78.35
2018-02-22T07:28:34.524Z,78.34
2018-02-22T07:31:02.033Z,78.34
2018-02-22T07:33:29.575Z,78.30
2018-02-22T07:35:57.086Z,78.26
2018-02-22T07:38:24.577Z,78.25
2018-02-22T07:40:52.066Z,78.25
2018-02-22T07:43:19.556Z,78.24
2018-02-22T07:45:47.051Z,78.25
2018-02-22T07:48:14.542Z,78.32
2018-02-22T07:50:42.035Z,78.35
2018-02-22T07:53:09.523Z,78.36
2018-02-22T07:55:37.021Z,78.36
2018-02-22T07:58:04.536Z,78.40
2018-02-22T08:00:32.031Z,78.41
2018-02-22T08:02:59.521Z,78.41
2018-02-22T08:05:27.032Z,78.43
2018-02-22T08:07:54.537Z,78.44
2018-02-22T08:10:22.029Z,78.46
2018-02-22T08:12:49.547Z,78.46
2018-02-22T08:15:17.046Z,78.46
2018-02-22T08:17:44.600Z,78.47
2018-02-22T08:20:12.090Z,78.48
2018-02-22T08:22:39.587Z,78.49
2018-02-22T08:25:07.080Z,78.52
2018-02-22T08:27:34.563Z,78.52
2018-02-22T08:30:02.051Z,78.50
2018-02-22T08:32:29.534Z,78.52
2018-02-22T08:34:57.043Z,78.57
2018-02-22T08:37:24.527Z,78.61
2018-02-22T08:39:52.038Z,78.63
2018-02-22T08:42:19.552Z,78.66
2018-02-22T08:44:47.062Z,78.71
2018-02-22T08:47:14.580Z,78.76
2018-02-22T08:49:42.059Z,78.78
2018-02-22T08:52:09.555Z,78.77
2018-02-22T08:54:37.046Z,78.77
2018-02-22T08:57:04.536Z,78.77
2018-02-22T08:59:34.096Z,78.78
2018-02-22T09:02:01.585Z,78.80
2018-02-22T09:04:29.082Z,78.80
2018-02-22T09:06:56.571Z,78.81
2018-02-22T09:09:24.059Z,78.80
2018-02-22T09:11:51.555Z,78.80
2018-02-22T09:14:19.043Z,78.79
2018-02-22T09:16:46.529Z,78.78
2018-02-22T09:19:14.038Z,78.78
2018-02-22T09:21:41.534Z,78.79
2018-02-22T09:24:09.075Z,78.79
2018-02-22T09:26:36.643Z,78.75
2018-02-22T09:29:04.229Z,78.74
2018-02-22T09:31:31.732Z,78.74
2018-02-22T09:33:59.225Z,78.75
2018-02-22T09:36:26.721Z,78.79
2018-02-22T09:38:54.239Z,78.72
2018-02-22T09:41:21.735Z,78.58
2018-02-22T09:43:49.318Z,78.52
2018-02-22T09:46:16.814Z,78.43
2018-02-22T09:48:44.340Z,78.36
2018-02-22T09:51:11.867Z,78.27
2018-02-22T09:53:39.360Z,78.18
2018-02-22T09:56:06.851Z,78.02
2018-02-22T09:58:34.359Z,77.75
2018-02-22T10:01:01.860Z,77.71
2018-02-22T10:03:29.360Z,77.75
2018-02-22T10:05:56.867Z,77.75
2018-02-22T10:08:24.388Z,77.75
2018-02-22T10:10:51.910Z,77.69
2018-02-22T10:13:19.546Z,77.53
2018-02-22T10:15:47.120Z,77.48
2018-02-22T10:18:14.685Z,77.46
2018-02-22T10:20:42.193Z,77.29
2018-02-22T10:23:09.695Z,77.33
2018-02-22T10:25:37.182Z,77.23
2018-02-22T10:28:04.813Z,77.10
2018-02-22T10:30:32.328Z,77.04
2018-02-22T10:32:59.861Z,77.11
2018-02-22T10:35:27.394Z,76.96
2018-02-22T10:37:54.886Z,76.85
2018-02-22T10:40:22.428Z,76.87
2018-02-22T10:42:49.983Z,76.82
2018-02-22T10:45:17.463Z,76.78
2018-02-22T10:47:44.958Z,76.75
2018-02-22T10:50:12.457Z,76.57
2018-02-22T10:52:39.969Z,76.46
2018-02-22T10:55:07.472Z,76.27
2018-02-22T10:57:34.977Z,76.17
2018-02-22T11:00:02.493Z,76.14
2018-02-22T11:02:35.611Z,76.13
2018-02-22T11:05:03.111Z,76.01
2018-02-22T11:07:30.629Z,75.87
2018-02-22T11:09:58.150Z,75.78
2018-02-22T11:12:25.723Z,75.64
2018-02-22T11:14:53.235Z,75.46
2018-02-22T11:17:20.756Z,75.65
2018-02-22T11:19:48.277Z,75.66
2018-02-22T11:22:15.811Z,75.61
2018-02-22T11:24:43.299Z,75.53
2018-02-22T11:27:10.877Z,74.95
2018-02-22T11:29:38.379Z,74.80
2018-02-22T11:32:05.903Z,74.81
2018-02-22T11:34:33.400Z,74.87
2018-02-22T11:37:00.889Z,74.32
2018-02-22T11:39:28.433Z,74.39
2018-02-22T11:41:55.932Z,74.32
2018-02-22T11:44:23.452Z,74.25
2018-02-22T11:46:50.935Z,74.21
2018-02-22T11:49:18.504Z,73.94
2018-02-22T11:51:46.006Z,73.76
2018-02-22T11:54:13.516Z,73.56
2018-02-22T11:56:41.008Z,73.43
2018-02-22T11:59:08.558Z,73.10
2018-02-22T12:01:36.064Z,72.72
2018-02-22T12:04:03.594Z,72.33
2018-02-22T12:06:31.104Z,72.18
2018-02-22T12:08:58.740Z,72.20
2018-02-22T12:11:26.280Z,71.99
2018-02-22T12:13:53.828Z,71.74
2018-02-22T12:16:21.348Z,70.94
2018-02-22T12:18:48.820Z,70.85
2018-02-22T12:21:16.335Z,69.14
2018-02-22T12:23:43.830Z,69.89
2018-02-22T12:26:11.328Z,68.95
2018-02-22T12:28:39.394Z,67.81
2018-02-22T12:31:06.904Z,67.76
2018-02-22T12:33:34.419Z,66.85
2018-02-22T12:36:01.926Z,66.17
2018-02-22T12:38:29.418Z,65.59
2018-02-22T12:40:56.926Z,64.80
2018-02-22T12:43:24.426Z,63.92
2018-02-22T12:45:51.930Z,62.22
2018-02-22T12:48:19.428Z,62.85
2018-02-22T12:50:46.971Z,62.39
2018-02-22T12:53:14.479Z,60.34
2018-02-22T12:55:42.029Z,60.96
2018-02-22T12:58:09.528Z,61.04
2018-02-22T13:00:37.019Z,60.73
2018-02-22T13:03:04.549Z,60.63
2018-02-22T13:05:32.064Z,60.20
2018-02-22T13:07:59.565Z,60.22
2018-02-22T13:10:27.051Z,59.63
2018-02-22T13:12:54.573Z,59.82
2018-02-22T13:15:22.093Z,58.43
2018-02-22T13:17:49.620Z,58.76
2018-02-22T13:20:17.124Z,58.64
2018-02-22T13:22:44.620Z,58.48
2018-02-22T13:25:12.137Z,57.90
2018-02-22T13:27:39.631Z,57.62
2018-02-22T13:30:07.139Z,57.35
2018-02-22T13:32:46.265Z,57.19
2018-02-22T13:35:13.746Z,57.31
2018-02-22T13:40:51.446Z,56.51
2018-02-22T13:43:18.955Z,56.23
2018-02-22T13:45:46.476Z,54.40
2018-02-22T13:48:13.971Z,52.78
2018-02-22T13:50:53.236Z,52.48
2018-02-22T13:53:20.732Z,53.07
2018-02-22T13:55:48.239Z,53.34
2018-02-22T13:58:15.734Z,53.26
2018-02-22T14:00:54.924Z,53.57
2018-02-22T14:03:22.436Z,53.82
2018-02-22T14:05:49.925Z,54.05
2018-02-22T14:08:29.057Z,54.04
2018-02-22T14:11:03.447Z,54.23
2018-02-22T14:13:30.947Z,54.71
2018-02-22T14:15:58.532Z,54.37
2018-02-22T14:18:26.073Z,54.44
2018-02-22T14:20:53.580Z,54.01
2018-02-22T14:23:21.082Z,53.31
2018-02-22T14:25:48.595Z,52.88
2018-02-22T14:28:16.126Z,52.89
2018-02-22T14:30:43.628Z,52.82
2018-02-22T14:33:11.132Z,52.40
2018-02-22T14:35:38.638Z,52.53
2018-02-22T14:38:06.148Z,52.86
2018-02-22T14:40:33.681Z,52.16
2018-02-22T14:43:01.190Z,50.14
2018-02-22T14:45:28.723Z,50.50
2018-02-22T14:47:56.184Z,50.84
2018-02-22T14:50:23.676Z,50.79
2018-02-22T14:52:51.343Z,50.64
2018-02-22T14:55:18.844Z,50.53
2018-02-22T14:57:46.355Z,50.68
2018-02-22T15:00:13.877Z,50.87
2018-02-22T15:02:41.378Z,51.08
2018-02-22T15:05:08.871Z,51.34
2018-02-22T15:07:36.389Z,51.51
2018-02-22T15:10:03.896Z,51.12
2018-02-22T15:12:31.403Z,51.58
2018-02-22T15:14:58.896Z,51.35
2018-02-22T15:17:26.446Z,51.20
2018-02-22T15:19:54.067Z,51.54
2018-02-22T15:22:21.575Z,51.49
2018-02-22T15:24:49.915Z,51.20
2018-02-22T15:27:18.207Z,51.41
2018-02-22T15:29:45.702Z,52.06
2018-02-22T15:32:13.219Z,52.27
2018-02-22T15:34:40.715Z,52.75
2018-02-22T15:37:08.226Z,52.83
2018-02-22T15:39:35.734Z,52.82
2018-02-22T15:42:03.227Z,52.92
2018-02-22T15:44:30.727Z,52.68
2018-02-22T15:46:58.226Z,52.37
2018-02-22T15:49:25.724Z,52.41
2018-02-22T15:51:53.223Z,52.33
2018-02-22T15:54:20.725Z,51.99
2018-02-22T15:56:48.227Z,52.02
2018-02-22T15:59:15.808Z,52.29
2018-02-22T16:01:43.299Z,52.96
2018-02-22T16:04:10.800Z,53.59
2018-02-22T16:06:38.298Z,54.00
2018-02-22T16:09:05.811Z,54.18
2018-02-22T16:11:33.309Z,54.24
2018-02-22T16:14:00.835Z,54.09
2018-02-22T16:16:28.373Z,54.08
2018-02-22T16:18:55.871Z,53.87
2018-02-22T16:21:23.383Z,53.71
2018-02-22T16:23:50.971Z,53.88
2018-02-22T16:26:18.569Z,54.06
2018-02-22T16:28:46.072Z,54.30
2018-02-22T16:31:13.572Z,54.57
2018-02-22T16:33:41.075Z,54.83
2018-02-22T16:36:08.596Z,54.94
2018-02-22T16:38:36.096Z,55.00
2018-02-22T16:41:03.620Z,55.06
2018-02-22T16:43:32.404Z,55.04
2018-02-22T16:45:59.899Z,55.03
2018-02-22T16:48:27.477Z,55.24
2018-02-22T16:50:54.976Z,55.27
2018-02-22T16:53:22.495Z,55.16
2018-02-22T16:55:49.996Z,55.18
2018-02-22T16:58:17.507Z,55.30
2018-02-22T17:00:45.083Z,55.33
2018-02-22T17:03:12.555Z,55.41
2018-02-22T17:05:40.071Z,55.39
2018-02-22T17:08:07.579Z,55.28
2018-02-22T17:10:35.084Z,55.25
2018-02-22T17:13:02.591Z,55.32
2018-02-22T17:15:30.148Z,54.98
2018-02-22T17:17:57.724Z,54.92
2018-02-22T17:20:25.227Z,54.86
2018-02-22T17:22:52.742Z,55.00
2018-02-22T17:25:19.702Z,55.35
2018-02-22T17:27:52.575Z,55.63
2018-02-22T17:30:25.581Z,56.10
2018-02-22T17:32:53.106Z,56.48
2018-02-22T17:35:23.398Z,56.79
2018-02-22T17:37:56.943Z,56.93
2018-02-22T17:40:28.824Z,57.14
2018-02-22T17:42:56.348Z,57.29
2018-02-22T17:45:23.863Z,57.68
2018-02-22T17:47:51.404Z,58.00
2018-02-22T17:50:18.911Z,58.68
2018-02-22T17:52:46.409Z,58.92
2018-02-22T17:55:13.917Z,59.31
2018-02-22T17:57:41.431Z,59.49
2018-02-22T18:00:08.936Z,59.85
2018-02-22T18:02:36.448Z,59.93
2018-02-22T18:05:03.980Z,60.02
2018-02-22T18:07:31.559Z,60.10
2018-02-22T18:09:59.158Z,60.17
2018-02-22T18:12:26.649Z,60.23
2018-02-22T18:14:54.155Z,60.32
2018-02-22T18:17:21.667Z,60.33
2018-02-22T18:19:49.179Z,60.42
2018-02-22T18:22:16.681Z,60.44
2018-02-22T18:24:44.207Z,60.47
2018-02-22T18:27:11.700Z,60.61
2018-02-22T18:29:39.203Z,60.56
2018-02-22T18:32:06.690Z,60.58
2018-02-22T18:34:34.181Z,60.59
2018-02-22T18:37:01.681Z,60.62
2018-02-22T18:39:29.179Z,60.66
2018-02-22T18:41:59.243Z,60.70
2018-02-22T18:44:32.139Z,60.77
2018-02-22T18:46:59.659Z,60.83
2018-02-22T18:49:27.162Z,60.95
2018-02-22T18:51:54.660Z,61.07
2018-02-22T18:54:22.162Z,61.22
2018-02-22T18:56:49.674Z,61.37
2018-02-22T18:59:17.158Z,61.46
2018-02-22T19:01:44.648Z,61.58
2018-02-22T19:04:12.127Z,61.70
2018-02-22T19:06:39.647Z,61.78
2018-02-22T19:09:07.158Z,61.82
2018-02-22T19:11:34.643Z,61.92
2018-02-22T19:14:02.308Z,62.03
2018-02-22T19:16:29.808Z,62.13
2018-02-22T19:18:57.303Z,62.23
2018-02-22T19:21:24.836Z,62.27
2018-02-22T19:23:52.341Z,62.39
2018-02-22T19:26:19.903Z,62.53
2018-02-22T19:28:47.428Z,62.61
2018-02-22T19:31:14.931Z,62.77
2018-02-22T19:33:42.440Z,62.84
2018-02-22T19:36:09.935Z,62.91
2018-02-22T19:38:37.427Z,63.00
2018-02-22T19:41:05.727Z,63.08
2018-02-22T19:43:33.230Z,63.15
2018-02-22T19:46:00.726Z,63.47
2018-02-22T19:48:28.219Z,63.64
2018-02-22T19:50:55.732Z,63.79
2018-02-22T19:53:23.228Z,63.85
2018-02-22T19:55:50.707Z,63.80
2018-02-22T19:58:18.227Z,63.79
2018-02-22T20:00:45.718Z,63.81
2018-02-22T20:03:13.247Z,63.87
2018-02-22T20:05:40.735Z,63.92
2018-02-22T20:08:08.241Z,63.99
2018-02-22T20:10:35.748Z,64.16
2018-02-22T20:13:03.246Z,64.31
2018-02-22T20:15:30.782Z,64.49
2018-02-22T20:17:58.306Z,64.57
2018-02-22T20:20:25.804Z,64.67
2018-02-22T20:22:53.335Z,64.82
2018-02-22T20:25:20.935Z,64.95
2018-02-22T20:27:48.458Z,64.92
2018-02-22T20:30:15.979Z,64.90
2018-02-22T20:32:43.487Z,64.90
2018-02-22T20:35:10.984Z,64.91
2018-02-22T20:37:38.530Z,64.94
2018-02-22T20:40:06.030Z,65.04
2018-02-22T20:42:33.523Z,65.12
2018-02-22T20:45:01.064Z,65.22
2018-02-22T20:47:28.587Z,65.38
2018-02-22T20:49:56.127Z,65.49
2018-02-22T20:52:30.036Z,65.61
2018-02-22T20:55:10.308Z,65.67
2018-02-22T20:57:37.894Z,65.76
2018-02-22T21:00:05.372Z,65.81
2018-02-22T21:02:33.017Z,65.88
2018-02-22T21:05:00.525Z,66.02
2018-02-22T21:07:28.023Z,66.09
2018-02-22T21:09:55.592Z,66.20
2018-02-22T21:12:23.096Z,66.27
2018-02-22T21:14:50.578Z,66.35
2018-02-22T21:17:18.069Z,66.41
2018-02-22T21:19:45.563Z,66.45
2018-02-22T21:22:13.083Z,66.50
2018-02-22T21:24:40.579Z,66.54
2018-02-22T21:27:08.067Z,66.56
2018-02-22T21:29:35.557Z,66.59
2018-02-22T21:32:03.047Z,66.68
2018-02-22T21:34:30.538Z,66.74
2018-02-22T21:36:58.019Z,66.78
2018-02-22T21:39:25.580Z,66.82
2018-02-22T21:41:53.059Z,66.88
2018-02-22T21:44:20.572Z,66.96
2018-02-22T21:46:48.053Z,67.07
2018-02-22T21:49:15.531Z,67.16
2018-02-22T21:51:43.016Z,67.25
2018-02-22T21:54:10.531Z,67.32
2018-02-22T21:56:38.036Z,67.42
2018-02-22T21:59:05.527Z,67.53
2018-02-22T22:01:33.031Z,67.66
2018-02-22T22:04:00.546Z,67.75
2018-02-22T22:06:28.043Z,67.92
2018-02-22T22:08:55.523Z,68.03
2018-02-22T22:11:23.022Z,68.13
2018-02-22T22:13:50.503Z,68.24
2018-02-22T22:16:18.017Z,68.34
2018-02-22T22:18:45.510Z,68.41
2018-02-22T22:21:12.987Z,68.51
2018-02-22T22:23:40.509Z,68.58
2018-02-22T22:26:08.027Z,68.67
2018-02-22T22:28:35.518Z,68.76
2018-02-22T22:31:03.011Z,68.81
2018-02-22T22:33:30.497Z,68.88
2018-02-22T22:35:57.990Z,68.95
2018-02-22T22:38:25.536Z,68.98
2018-02-22T22:40:53.071Z,68.98
2018-02-22T22:43:20.567Z,68.99
2018-02-22T22:45:48.058Z,69.05
2018-02-22T22:48:15.555Z,69.02
2018-02-22T22:50:43.051Z,69.04
2018-02-22T22:53:10.556Z,69.10
2018-02-22T22:55:38.043Z,69.04
2018-02-22T22:58:05.548Z,69.11
2018-02-22T23:00:33.039Z,69.09
2018-02-22T23:03:00.543Z,69.09
2018-02-22T23:05:28.040Z,69.17
2018-02-22T23:07:55.548Z,69.22
2018-02-22T23:10:23.051Z,69.25
2018-02-22T23:12:50.589Z,69.29
2018-02-22T23:15:18.079Z,69.36
2018-02-22T23:17:45.572Z,69.39
2018-02-22T23:20:13.068Z,69.44
2018-02-22T23:22:40.563Z,69.50
2018-02-22T23:25:08.075Z,69.54
2018-02-22T23:27:35.557Z,69.51
2018-02-22T23:30:03.055Z,69.47
2018-02-22T23:32:30.556Z,69.45
2018-02-22T23:34:58.055Z,69.45
2018-02-22T23:37:25.591Z,69.48
2018-02-22T23:39:53.111Z,69.53
2018-02-22T23:42:26.079Z,69.57
2018-02-22T23:44:53.555Z,69.65
2018-02-22T23:47:21.059Z,69.75
2018-02-22T23:49:48.571Z,69.80
2018-02-22T23:52:16.069Z,69.73
2018-02-22T23:54:43.587Z,69.73
2018-02-22T23:57:11.064Z,69.74
2018-02-22T23:59:38.560Z,69.76
